createdAt,value
2022-12-27T00:17:05.415Z,445
2022-12-27T00:57:04.980Z,442
2022-12-27T01:17:05.490Z,439
2022-12-27T01:37:05.491Z,439
2022-12-27T01:57:05.498Z,440
2022-12-27T02:17:05.661Z,440
2022-12-27T02:37:05.537Z,435
2022-12-27T02:57:05.541Z,436
2022-12-27T03:17:05.540Z,437
2022-12-27T03:37:05.444Z,434
2022-12-27T03:57:05.414Z,428
2022-12-27T04:17:05.582Z,435
2022-12-27T04:37:05.628Z,429
2022-12-27T04:57:05.673Z,427
2022-12-27T05:17:05.633Z,424
2022-12-27T05:37:05.684Z,428
2022-12-27T05:57:05.809Z,427
2022-12-27T06:17:05.692Z,427
2022-12-27T06:37:05.696Z,420
2022-12-27T06:57:05.715Z,418
2022-12-27T07:17:05.225Z,422
2022-12-27T07:37:05.223Z,421
2022-12-27T07:57:05.703Z,417
2022-12-27T08:17:05.804Z,420
2022-12-27T08:37:05.776Z,418
2022-12-27T08:57:05.599Z,416
2022-12-27T09:17:05.825Z,422
2022-12-27T09:37:05.868Z,417
2022-12-27T09:57:19.240Z,417
2022-12-27T10:17:05.862Z,418
2022-12-27T10:37:05.831Z,414
2022-12-27T10:57:05.906Z,416
2022-12-27T11:17:05.878Z,410
2022-12-27T11:57:05.910Z,405
2022-12-27T12:17:05.971Z,409
2022-12-27T12:37:05.899Z,396
2022-12-27T12:57:05.929Z,407
2022-12-27T13:17:05.960Z,404
2022-12-27T13:37:05.954Z,404
2022-12-27T13:57:05.928Z,399
2022-12-27T14:17:05.963Z,404
2022-12-27T14:37:05.978Z,402
2022-12-27T15:17:05.965Z,402
2022-12-27T15:37:05.992Z,396
2022-12-27T15:57:06.003Z,402
2022-12-27T16:17:06.006Z,404
2022-12-27T16:37:06.021Z,399
2022-12-27T16:57:06.021Z,401
2022-12-27T17:17:06.024Z,399
2022-12-27T17:37:06.063Z,394
2022-12-27T17:57:06.060Z,394
2022-12-27T18:17:06.073Z,401
2022-12-27T18:37:06.050Z,396
2022-12-27T18:57:06.061Z,394
2022-12-27T19:17:10.870Z,397
2022-12-27T19:37:06.107Z,392
2022-12-27T19:57:06.101Z,397
2022-12-27T20:17:06.132Z,390
2022-12-27T20:37:05.960Z,390
2022-12-27T21:37:10.068Z,391
2022-12-27T21:57:13.207Z,394
2022-12-27T22:17:06.290Z,386
2022-12-27T22:37:06.227Z,392
2022-12-27T22:57:06.217Z,388
2022-12-27T23:17:06.228Z,388
2022-12-27T23:37:06.252Z,393
2022-12-27T23:57:19.710Z,390
